Time;durP1;ratioP1;P1;durP2;ratioP2;P2;SDS_P1;SDS_P2;PMS_P1;PMS_P2;Temp;Humidity;BMP_temperature;BMP_pressure;BME280_temperature;BME280_humidity;BME280_pressure;Samples;Min_cycle;Max_cycle;Signal;HPM_P1;HPM_P2
2024/03/26 00:02:11;;;;;;;;;;;;;;;;;;5092342;28;20014;-69
2024/03/26 00:04:37;;;;;;;;;;;;;;;;;;5092793;28;19914;-69
2024/03/26 00:07:02;;;;;;;;;;;;;;;;;;5079809;28;19922;-69
2024/03/26 00:09:27;;;;;;;;;;;;;;;;;;5111432;28;19908;-69
2024/03/26 00:11:52;;;;;;;;;;;;;;;;;;5111528;28;20579;-69
2024/03/26 00:14:17;;;;;;;;;;;;;;;;;;5099578;28;20380;-69
2024/03/26 00:16:42;;;;;;;;;;;;;;;;;;5092510;28;20272;-69
2024/03/26 00:19:07;;;;;;;;;;;;;;;;;;5105968;28;20402;-69
2024/03/26 00:21:33;;;;;;;;;;;;;;;;;;5098273;28;19955;-69
2024/03/26 00:23:58;;;;;;;;;;;;;;;;;;5092287;28;19912;-69
2024/03/26 00:26:23;;;;;;;;;;;;;;;;;;5092279;28;19925;-69
2024/03/26 00:28:48;;;;;;;;;;;;;;;;;;5092075;28;19908;-69
2024/03/26 00:31:13;;;;;;;;;;;;;;;;;;5092171;28;19998;-69
2024/03/26 00:33:38;;;;;;;;;;;;;;;;;;5093600;28;19909;-69
2024/03/26 00:36:03;;;;;;;;;;;;;;;;;;5092095;28;19912;-69
2024/03/26 00:38:28;;;;;;;;;;;;;;;;;;5092212;28;19920;-69
2024/03/26 00:40:54;;;;;;;;;;;;;;;;;;5097187;28;19928;-69
2024/03/26 00:43:19;;;;;;;;;;;;;;;;;;5106735;28;19915;-68
2024/03/26 00:45:44;;;;;;;;;;;;;;;;;;5091824;28;20401;-68
2024/03/26 00:48:09;;;;;;;;;;;;;;;;;;5093608;28;19912;-69
2024/03/26 00:50:35;;;;;;;;;;;;;;;;;;5092846;28;19908;-69
2024/03/26 00:53:00;;;;;;;;;;;;;;;;;;5091549;28;19915;-69
2024/03/26 00:55:25;;;;;;;;;;;;;;;;;;5092183;28;19915;-69
2024/03/26 00:57:51;;;;;;;;;;;;;;;;;;5091766;28;19954;-69
2024/03/26 01:00:16;;;;;;;;;;;;;;;;;;5091920;28;19989;-69
2024/03/26 01:02:41;;;;;;;;;;;;;;;;;;5091980;28;20322;-69
2024/03/26 01:05:06;;;;;;;;;;;;;;;;;;5091835;28;20322;-69
2024/03/26 01:07:31;;;;;;;;;;;;;;;;;;5091978;28;19916;-69
2024/03/26 01:09:56;;;;;;;;;;;;;;;;;;5092783;28;19959;-69
2024/03/26 01:12:21;;;;;;;;;;;;;;;;;;5092103;28;19908;-63
2024/03/26 01:14:47;;;;;;;;;;;;;;;;;;5091549;28;20526;-64
2024/03/26 01:17:12;;;;;;;;;;;;;;;;;;5093687;28;19908;-63
2024/03/26 01:19:37;;;;;;;;;;;;;;;;;;5109917;28;20295;-63
2024/03/26 01:22:02;;;;;;;;;;;;;;;;;;5114955;28;20325;-63
2024/03/26 01:24:27;;;;;;;;;;;;;;;;;;5114784;28;20406;-62
2024/03/26 01:26:52;;;;;;;;;;;;;;;;;;5101444;28;19908;-63
2024/03/26 01:29:17;;;;;;;;;;;;;;;;;;5095481;28;19912;-64
2024/03/26 01:31:42;;;;;;;;;;;;;;;;;;5097723;28;19916;-63
2024/03/26 01:34:08;;;;;;;;;;;;;;;;;;5095033;28;19912;-63
2024/03/26 01:36:33;;;;;;;;;;;;;;;;;;5098521;28;20322;-63
2024/03/26 01:38:58;;;;;;;;;;;;;;;;;;5094855;28;19916;-63
2024/03/26 01:41:23;;;;;;;;;;;;;;;;;;5094991;28;19924;-65
2024/03/26 01:43:48;;;;;;;;;;;;;;;;;;5094928;28;19943;-64
2024/03/26 01:46:13;;;;;;;;;;;;;;;;;;5095276;28;19908;-63
2024/03/26 01:48:38;;;;;;;;;;;;;;;;;;5095954;28;19912;-63
2024/03/26 01:51:03;;;;;;;;;;;;;;;;;;5095032;28;19908;-63
2024/03/26 01:53:29;;;;;;;;;;;;;;;;;;5094907;28;19991;-64
2024/03/26 01:55:54;;;;;;;;;;;;;;;;;;5109388;28;19912;-63
2024/03/26 01:58:19;;;;;;;;;;;;;;;;;;5114037;28;19908;-64
2024/03/26 02:00:44;;;;;;;;;;;;;;;;;;5113711;28;19912;-63
2024/03/26 02:03:09;;;;;;;;;;;;;;;;;;5110441;28;20352;-63
2024/03/26 02:05:34;;;;;;;;;;;;;;;;;;5094775;28;20390;-63
2024/03/26 02:07:59;;;;;;;;;;;;;;;;;;5106830;28;20359;-64
2024/03/26 02:10:24;;;;;;;;;;;;;;;;;;5113842;28;20359;-63
2024/03/26 02:12:49;;;;;;;;;;;;;;;;;;5112620;28;20279;-63
2024/03/26 02:15:15;;;;;;;;;;;;;;;;;;5094497;28;20642;-63
2024/03/26 02:17:40;;;;;;;;;;;;;;;;;;5099461;28;20303;-64
2024/03/26 02:20:05;;;;;;;;;;;;;;;;;;5101391;28;20387;-63
2024/03/26 02:22:30;;;;;;;;;;;;;;;;;;5094411;28;19908;-62
2024/03/26 02:24:55;;;;;;;;;;;;;;;;;;5103997;28;19970;-63
2024/03/26 02:27:20;;;;;;;;;;;;;;;;;;5094052;28;19942;-63
2024/03/26 02:29:45;;;;;;;;;;;;;;;;;;5093345;28;19912;-64
2024/03/26 02:32:12;;;;;;;;;;;;;;;;;;5093994;28;19908;-64
2024/03/26 02:34:37;;;;;;;;;;;;;;;;;;5094648;28;19912;-63
2024/03/26 02:37:02;;;;;;;;;;;;;;;;;;5096920;28;20026;-63
2024/03/26 02:39:27;;;;;;;;;;;;;;;;;;5094592;28;19920;-63
2024/03/26 02:41:52;;;;;;;;;;;;;;;;;;5110113;28;20295;-63
2024/03/26 02:44:17;;;;;;;;;;;;;;;;;;5107251;28;19956;-63
2024/03/26 02:46:42;;;;;;;;;;;;;;;;;;5113044;28;19950;-63
2024/03/26 02:49:08;;;;;;;;;;;;;;;;;;5112083;28;19927;-62
2024/03/26 02:51:33;;;;;;;;;;;;;;;;;;5095835;28;19915;-63
2024/03/26 02:53:58;;;;;;;;;;;;;;;;;;5094118;28;19909;-63
2024/03/26 02:56:23;;;;;;;;;;;;;;;;;;5093596;28;20280;-64
2024/03/26 02:58:48;;;;;;;;;;;;;;;;;;5093401;28;19908;-63
2024/03/26 03:01:13;;;;;;;;;;;;;;;;;;5093431;28;19958;-63
2024/03/26 03:03:38;;;;;;;;;;;;;;;;;;5093888;28;19919;-63
2024/03/26 03:06:03;;;;;;;;;;;;;;;;;;5094161;28;19912;-62
2024/03/26 03:08:29;;;;;;;;;;;;;;;;;;5101690;28;19908;-63
2024/03/26 03:10:54;;;;;;;;;;;;;;;;;;5111054;28;19923;-63
2024/03/26 03:13:19;;;;;;;;;;;;;;;;;;5107090;28;20364;-63
2024/03/26 03:15:44;;;;;;;;;;;;;;;;;;5093307;28;20357;-63
2024/03/26 03:18:09;;;;;;;;;;;;;;;;;;5093437;28;20396;-63
2024/03/26 03:20:35;;;;;;;;;;;;;;;;;;5093401;28;20288;-63
2024/03/26 03:23:00;;;;;;;;;;;;;;;;;;5074633;28;19909;-63
2024/03/26 03:25:25;;;;;;;;;;;;;;;;;;5110955;28;19914;-63
2024/03/26 03:27:50;;;;;;;;;;;;;;;;;;5106570;28;19908;-63
2024/03/26 03:30:15;;;;;;;;;;;;;;;;;;5093168;28;19911;-63
2024/03/26 03:32:40;;;;;;;;;;;;;;;;;;5096942;28;19940;-70
2024/03/26 03:35:05;;;;;;;;;;;;;;;;;;5094929;28;19911;-70
2024/03/26 03:37:30;;;;;;;;;;;;;;;;;;5093278;28;19908;-70
2024/03/26 03:39:56;;;;;;;;;;;;;;;;;;5094018;28;19924;-70
2024/03/26 03:42:21;;;;;;;;;;;;;;;;;;5092654;28;19923;-70
2024/03/26 03:44:46;;;;;;;;;;;;;;;;;;5093025;28;19939;-70
2024/03/26 03:47:12;;;;;;;;;;;;;;;;;;5092923;28;19912;-70
2024/03/26 03:49:37;;;;;;;;;;;;;;;;;;5092837;28;19937;-70
2024/03/26 03:52:03;;;;;;;;;;;;;;;;;;5092828;28;19918;-70
2024/03/26 03:54:28;;;;;;;;;;;;;;;;;;5092456;28;19957;-70
2024/03/26 03:56:53;;;;;;;;;;;;;;;;;;5094502;28;19915;-71
2024/03/26 03:59:18;;;;;;;;;;;;;;;;;;5092206;28;20022;-70
2024/03/26 04:01:44;;;;;;;;;;;;;;;;;;5092207;28;19912;-70
2024/03/26 04:04:09;;;;;;;;;;;;;;;;;;5111129;28;19907;-70
2024/03/26 04:06:34;;;;;;;;;;;;;;;;;;5111346;28;19908;-70
2024/03/26 04:08:59;;;;;;;;;;;;;;;;;;5111100;28;19908;-70
2024/03/26 04:11:24;;;;;;;;;;;;;;;;;;5111307;28;19908;-70
2024/03/26 04:13:49;;;;;;;;;;;;;;;;;;5101167;28;19916;-70
2024/03/26 04:16:14;;;;;;;;;;;;;;;;;;5092230;28;19912;-70
2024/03/26 04:18:39;;;;;;;;;;;;;;;;;;5091998;28;19908;-70
2024/03/26 04:21:04;;;;;;;;;;;;;;;;;;5092659;28;20011;-70
2024/03/26 04:23:30;;;;;;;;;;;;;;;;;;5092068;28;19908;-69
2024/03/26 04:25:55;;;;;;;;;;;;;;;;;;5091851;28;19908;-70
2024/03/26 04:28:20;;;;;;;;;;;;;;;;;;5091865;28;19912;-70
2024/03/26 04:30:45;;;;;;;;;;;;;;;;;;5092156;28;19912;-72
2024/03/26 04:33:10;;;;;;;;;;;;;;;;;;5097704;28;19915;-70
2024/03/26 04:35:35;;;;;;;;;;;;;;;;;;5110366;28;19908;-70
2024/03/26 04:38:00;;;;;;;;;;;;;;;;;;5093352;28;19908;-70
2024/03/26 04:40:25;;;;;;;;;;;;;;;;;;5093635;28;19924;-70
2024/03/26 04:42:51;;;;;;;;;;;;;;;;;;5093762;28;19967;-62
2024/03/26 04:45:16;;;;;;;;;;;;;;;;;;5110790;28;19923;-63
2024/03/26 04:47:41;;;;;;;;;;;;;;;;;;5111076;28;19907;-63
2024/03/26 04:50:07;;;;;;;;;;;;;;;;;;5110801;28;19912;-64
2024/03/26 04:52:32;;;;;;;;;;;;;;;;;;5110344;28;19908;-63
2024/03/26 04:54:57;;;;;;;;;;;;;;;;;;5093340;28;19995;-63
2024/03/26 04:57:22;;;;;;;;;;;;;;;;;;5091597;28;19965;-63
2024/03/26 04:59:47;;;;;;;;;;;;;;;;;;5091587;28;19969;-64
2024/03/26 05:02:12;;;;;;;;;;;;;;;;;;5091953;28;19979;-63
2024/03/26 05:04:38;;;;;;;;;;;;;;;;;;5091783;28;19918;-63
2024/03/26 05:07:03;;;;;;;;;;;;;;;;;;5091657;28;19908;-64
2024/03/26 05:09:28;;;;;;;;;;;;;;;;;;5093091;28;19912;-62
2024/03/26 05:11:53;;;;;;;;;;;;;;;;;;5093641;28;19908;-62
2024/03/26 05:14:18;;;;;;;;;;;;;;;;;;5091406;28;20394;-63
2024/03/26 05:16:43;;;;;;;;;;;;;;;;;;5091439;28;20368;-63
2024/03/26 05:19:08;;;;;;;;;;;;;;;;;;5091687;28;19912;-63
2024/03/26 05:21:33;;;;;;;;;;;;;;;;;;5091419;28;19923;-63
2024/03/26 05:23:58;;;;;;;;;;;;;;;;;;5091217;28;20349;-62
2024/03/26 05:26:24;;;;;;;;;;;;;;;;;;5092547;28;19908;-63
2024/03/26 05:28:49;;;;;;;;;;;;;;;;;;5091719;28;19908;-63
2024/03/26 05:31:14;;;;;;;;;;;;;;;;;;5094112;28;19921;-62
2024/03/26 05:33:39;;;;;;;;;;;;;;;;;;5091023;28;19915;-63
2024/03/26 05:36:04;;;;;;;;;;;;;;;;;;5091163;28;19995;-63
2024/03/26 05:38:29;;;;;;;;;;;;;;;;;;5091081;28;19919;-63
2024/03/26 05:40:54;;;;;;;;;;;;;;;;;;5090938;28;19965;-62
2024/03/26 05:43:20;;;;;;;;;;;;;;;;;;5091349;28;19923;-64
2024/03/26 05:45:45;;;;;;;;;;;;;;;;;;5092798;28;19915;-63
2024/03/26 05:48:10;;;;;;;;;;;;;;;;;;5093888;28;19962;-63
2024/03/26 05:50:35;;;;;;;;;;;;;;;;;;5091161;28;19916;-63
2024/03/26 05:53:04;;;;;;;;;;;;;;;;;;5092363;28;19908;-70
2024/03/26 05:55:29;;;;;;;;;;;;;;;;;;5093047;28;20302;-69
2024/03/26 05:57:54;;;;;;;;;;;;;;;;;;5091108;28;19990;-68
2024/03/26 06:00:19;;;;;;;;;;;;;;;;;;5097228;28;20364;-69
2024/03/26 06:02:44;;;;;;;;;;;;;;;;;;5093860;28;19908;-69
2024/03/26 06:05:09;;;;;;;;;;;;;;;;;;5093298;28;19912;-69
2024/03/26 06:07:34;;;;;;;;;;;;;;;;;;5095133;28;19918;-66
2024/03/26 06:09:59;;;;;;;;;;;;;;;;;;5094089;28;19912;-69
2024/03/26 06:12:24;;;;;;;;;;;;;;;;;;5093797;28;19912;-69
2024/03/26 06:14:50;;;;;;;;;;;;;;;;;;5094643;28;19913;-69
2024/03/26 06:17:15;;;;;;;;;;;;;;;;;;5110109;28;19947;-69
2024/03/26 06:19:40;;;;;;;;;;;;;;;;;;5095209;28;19912;-69
2024/03/26 06:22:05;;;;;;;;;;;;;;;;;;5094932;28;19919;-69
2024/03/26 06:24:30;;;;;;;;;;;;;;;;;;5093817;28;19912;-69
2024/03/26 06:26:55;;;;;;;;;;;;;;;;;;5097919;28;19912;-69
2024/03/26 06:29:20;;;;;;;;;;;;;;;;;;5097683;28;19943;-69
2024/03/26 06:31:45;;;;;;;;;;;;;;;;;;5104984;28;19947;-69
2024/03/26 06:34:11;;;;;;;;;;;;;;;;;;5096782;28;19912;-69
2024/03/26 06:36:36;;;;;;;;;;;;;;;;;;5093092;28;19912;-69
2024/03/26 06:39:01;;;;;;;;;;;;;;;;;;5096439;28;19916;-70
2024/03/26 06:41:26;;;;;;;;;;;;;;;;;;5098688;28;19931;-69
2024/03/26 06:43:52;;;;;;;;;;;;;;;;;;5099650;28;20002;-69
2024/03/26 06:46:17;;;;;;;;;;;;;;;;;;5101468;28;19966;-70
2024/03/26 06:48:42;;;;;;;;;;;;;;;;;;5104656;28;19912;-69
2024/03/26 06:51:07;;;;;;;;;;;;;;;;;;5100725;28;19919;-69
2024/03/26 06:53:32;;;;;;;;;;;;;;;;;;5093950;28;19919;-70
2024/03/26 06:55:57;;;;;;;;;;;;;;;;;;5092936;28;19965;-70
2024/03/26 06:58:22;;;;;;;;;;;;;;;;;;5094374;28;20020;-69
2024/03/26 07:00:48;;;;;;;;;;;;;;;;;;5092828;28;19931;-69
2024/03/26 07:03:14;;;;;;;;;;;;;;;;;;5105332;28;19962;-62
2024/03/26 07:05:39;;;;;;;;;;;;;;;;;;5113227;28;19943;-62
2024/03/26 07:08:04;;;;;;;;;;;;;;;;;;5109881;28;19908;-61
2024/03/26 07:10:29;;;;;;;;;;;;;;;;;;5092728;28;19919;-62
2024/03/26 07:12:55;;;;;;;;;;;;;;;;;;5093854;28;19915;-61
2024/03/26 07:15:20;;;;;;;;;;;;;;;;;;5099411;28;19915;-61
2024/03/26 07:17:45;;;;;;;;;;;;;;;;;;5108239;28;19981;-62
2024/03/26 07:20:11;;;;;;;;;;;;;;;;;;5103643;28;19916;-61
2024/03/26 07:22:37;;;;;;;;;;;;;;;;;;5110671;28;19908;-61
2024/03/26 07:25:02;;;;;;;;;;;;;;;;;;5093538;28;19919;-62
2024/03/26 07:27:27;;;;;;;;;;;;;;;;;;5092474;28;19912;-62
2024/03/26 07:29:52;;;;;;;;;;;;;;;;;;5098061;28;19949;-61
2024/03/26 07:32:17;;;;;;;;;;;;;;;;;;5105093;28;19912;-61
2024/03/26 07:34:42;;;;;;;;;;;;;;;;;;5089427;28;19912;-61
2024/03/26 07:37:07;;;;;;;;;;;;;;;;;;5113326;28;19969;-61
2024/03/26 07:39:33;;;;;;;;;;;;;;;;;;5086922;28;19999;-61
2024/03/26 07:41:58;;;;;;;;;;;;;;;;;;5074018;28;20422;-61
2024/03/26 07:44:23;;;;;;;;;;;;;;;;;;5074736;28;19912;-62
2024/03/26 07:46:48;;;;;;;;;;;;;;;;;;5086636;28;20364;-62
2024/03/26 07:49:13;;;;;;;;;;;;;;;;;;5074722;28;20269;-62
2024/03/26 07:51:38;;;;;;;;;;;;;;;;;;5072370;28;20253;-61
2024/03/26 07:54:03;;;;;;;;;;;;;;;;;;5078778;28;19915;-63
2024/03/26 07:56:29;;;;;;;;;;;;;;;;;;5082549;28;19913;-61
2024/03/26 07:58:54;;;;;;;;;;;;;;;;;;5072888;28;19919;-62
2024/03/26 08:01:19;;;;;;;;;;;;;;;;;;5071750;28;20351;-61
2024/03/26 08:03:44;;;;;;;;;;;;;;;;;;5071890;28;20440;-61
2024/03/26 08:06:10;;;;;;;;;;;;;;;;;;5076333;28;19967;-61
2024/03/26 08:08:35;;;;;;;;;;;;;;;;;;5092351;28;20338;-61
2024/03/26 08:11:00;;;;;;;;;;;;;;;;;;5080913;28;19934;-61
2024/03/26 08:13:25;;;;;;;;;;;;;;;;;;5074795;28;19912;-61
2024/03/26 08:15:50;;;;;;;;;;;;;;;;;;5071626;28;20515;-61
2024/03/26 08:18:15;;;;;;;;;;;;;;;;;;5071151;28;19912;-62
2024/03/26 08:20:40;;;;;;;;;;;;;;;;;;5071072;28;19917;-61
2024/03/26 08:23:06;;;;;;;;;;;;;;;;;;5070688;28;20007;-61
2024/03/26 08:25:31;;;;;;;;;;;;;;;;;;5074108;28;19916;-61
2024/03/26 08:27:56;;;;;;;;;;;;;;;;;;5072086;28;19912;-62
2024/03/26 08:30:21;;;;;;;;;;;;;;;;;;5071047;28;19912;-62
2024/03/26 08:32:46;;;;;;;;;;;;;;;;;;5076671;28;19912;-61
2024/03/26 08:35:11;;;;;;;;;;;;;;;;;;5071187;28;19958;-61
2024/03/26 08:37:36;;;;;;;;;;;;;;;;;;5073727;28;19920;-61
2024/03/26 08:40:02;;;;;;;;;;;;;;;;;;5083396;28;19924;-61
2024/03/26 08:42:27;;;;;;;;;;;;;;;;;;5092314;28;19927;-61
2024/03/26 08:44:52;;;;;;;;;;;;;;;;;;5105546;28;20395;-61
2024/03/26 08:47:17;;;;;;;;;;;;;;;;;;5091812;28;19919;-60
2024/03/26 08:49:42;;;;;;;;;;;;;;;;;;5091500;28;19908;-61
2024/03/26 08:52:07;;;;;;;;;;;;;;;;;;5091713;28;19912;-61
2024/03/26 08:54:32;;;;;;;;;;;;;;;;;;5091713;28;20420;-61
2024/03/26 08:56:58;;;;;;;;;;;;;;;;;;5092466;28;20713;-61
2024/03/26 08:59:23;;;;;;;;;;;;;;;;;;5091287;28;20284;-61
2024/03/26 09:01:48;;;;;;;;;;;;;;;;;;5090840;28;19916;-61
2024/03/26 09:04:13;;;;;;;;;;;;;;;;;;5091023;28;19916;-61
2024/03/26 09:06:38;;;;;;;;;;;;;;;;;;5091106;28;19908;-61
2024/03/26 09:09:03;;;;;;;;;;;;;;;;;;5090638;28;19920;-61
2024/03/26 09:11:28;;;;;;;;;;;;;;;;;;5095124;28;19919;-62
2024/03/26 09:13:53;;;;;;;;;;;;;;;;;;5101884;28;19926;-61
2024/03/26 09:16:19;;;;;;;;;;;;;;;;;;5091423;28;19936;-61
2024/03/26 09:18:44;;;;;;;;;;;;;;;;;;5092976;28;20399;-61
2024/03/26 09:21:10;;;;;;;;;;;;;;;;;;5107878;28;20340;-62
2024/03/26 09:23:35;;;;;;;;;;;;;;;;;;5092718;28;19912;-69
2024/03/26 09:26:00;;;;;;;;;;;;;;;;;;5092784;28;20038;-70
2024/03/26 09:28:25;;;;;;;;;;;;;;;;;;5102680;28;19965;-70
2024/03/26 09:30:53;;;;;;;;;;;;;;;;;;5091401;28;20314;-69
2024/03/26 09:33:18;;;;;;;;;;;;;;;;;;5091279;28;19912;-70
2024/03/26 09:35:44;;;;;;;;;;;;;;;;;;5090567;28;19965;-70
2024/03/26 09:38:09;;;;;;;;;;;;;;;;;;5091529;28;19923;-70
2024/03/26 09:40:35;;;;;;;;;;;;;;;;;;5076502;28;19928;-70
2024/03/26 09:43:00;;;;;;;;;;;;;;;;;;5078119;28;19916;-70
2024/03/26 09:45:25;;;;;;;;;;;;;;;;;;5083563;28;20438;-71
2024/03/26 09:47:50;;;;;;;;;;;;;;;;;;5094948;28;19912;-70
2024/03/26 09:50:17;;;;;;;;;;;;;;;;;;5081050;28;20272;-69
2024/03/26 09:52:43;;;;;;;;;;;;;;;;;;5074361;28;20408;-70
2024/03/26 09:55:08;;;;;;;;;;;;;;;;;;5084170;28;19985;-70
2024/03/26 09:57:33;;;;;;;;;;;;;;;;;;5079708;28;19913;-70
2024/03/26 09:59:58;;;;;;;;;;;;;;;;;;5074211;28;20461;-70
2024/03/26 10:02:23;;;;;;;;;;;;;;;;;;5074515;28;20376;-71
2024/03/26 10:04:49;;;;;;;;;;;;;;;;;;5074020;28;20332;-71
2024/03/26 10:07:14;;;;;;;;;;;;;;;;;;5073616;28;19920;-71
2024/03/26 10:09:39;;;;;;;;;;;;;;;;;;5074239;28;20260;-70
2024/03/26 10:12:04;;;;;;;;;;;;;;;;;;5091227;28;19912;-70
2024/03/26 10:14:29;;;;;;;;;;;;;;;;;;5087087;28;19970;-69
2024/03/26 10:16:54;;;;;;;;;;;;;;;;;;5073486;28;20277;-71
2024/03/26 10:19:20;;;;;;;;;;;;;;;;;;5073035;28;19958;-69
2024/03/26 10:21:45;;;;;;;;;;;;;;;;;;5073199;28;19923;-70
2024/03/26 10:24:10;;;;;;;;;;;;;;;;;;5073701;28;19920;-71
2024/03/26 10:26:35;;;;;;;;;;;;;;;;;;5083790;28;19916;-70
2024/03/26 10:29:00;;;;;;;;;;;;;;;;;;5094174;28;19908;-71
2024/03/26 10:31:25;;;;;;;;;;;;;;;;;;5084796;28;20003;-72
2024/03/26 10:33:50;;;;;;;;;;;;;;;;;;5089862;28;20276;-70
2024/03/26 10:36:16;;;;;;;;;;;;;;;;;;5075618;28;20288;-70
2024/03/26 10:38:41;;;;;;;;;;;;;;;;;;5073561;28;19920;-71
2024/03/26 10:41:06;;;;;;;;;;;;;;;;;;5076027;28;20436;-70
2024/03/26 10:43:31;;;;;;;;;;;;;;;;;;5083580;28;20316;-68
2024/03/26 10:45:56;;;;;;;;;;;;;;;;;;5082752;28;19917;-70
2024/03/26 10:48:21;;;;;;;;;;;;;;;;;;5085641;28;19927;-69
2024/03/26 10:50:46;;;;;;;;;;;;;;;;;;5092948;28;20002;-70
2024/03/26 10:53:12;;;;;;;;;;;;;;;;;;5085281;28;19920;-71
2024/03/26 10:55:37;;;;;;;;;;;;;;;;;;5093447;28;19919;-71
2024/03/26 10:58:02;;;;;;;;;;;;;;;;;;5091926;28;19915;-71
2024/03/26 11:00:28;;;;;;;;;;;;;;;;;;5076000;28;19954;-71
2024/03/26 11:02:53;;;;;;;;;;;;;;;;;;5072570;28;19957;-70
2024/03/26 11:05:18;;;;;;;;;;;;;;;;;;5074922;28;19999;-69
2024/03/26 11:07:43;;;;;;;;;;;;;;;;;;5090230;28;20300;-71
2024/03/26 11:10:12;;;;;;;;;;;;;;;;;;5072632;28;20533;-68
2024/03/26 11:12:37;;;;;;;;;;;;;;;;;;5073825;28;19917;-70
2024/03/26 11:15:02;;;;;;;;;;;;;;;;;;5088895;28;19920;-71
2024/03/26 11:17:27;;;;;;;;;;;;;;;;;;5093249;28;19943;-71
2024/03/26 11:19:52;;;;;;;;;;;;;;;;;;5077411;28;20293;-71
2024/03/26 11:22:17;;;;;;;;;;;;;;;;;;5072587;28;19909;-72
2024/03/26 11:24:43;;;;;;;;;;;;;;;;;;5072187;28;20023;-69
2024/03/26 11:27:08;;;;;;;;;;;;;;;;;;5072739;28;19913;-69
2024/03/26 11:29:35;;;;;;;;;;;;;;;;;;5072314;28;19946;-70
2024/03/26 11:32:00;;;;;;;;;;;;;;;;;;5074074;28;19912;-65
2024/03/26 11:34:25;;;;;;;;;;;;;;;;;;5071782;28;19920;-69
2024/03/26 11:36:50;;;;;;;;;;;;;;;;;;5083536;28;19912;-70
2024/03/26 11:39:16;;;;;;;;;;;;;;;;;;5072708;28;19936;-68
2024/03/26 11:41:41;;;;;;;;;;;;;;;;;;5072210;28;19924;-67
2024/03/26 11:44:06;;;;;;;;;;;;;;;;;;5071991;28;19916;-69
2024/03/26 11:46:31;;;;;;;;;;;;;;;;;;5075176;28;19916;-70
2024/03/26 11:48:56;;;;;;;;;;;;;;;;;;5085339;28;19958;-70
2024/03/26 11:51:21;;;;;;;;;;;;;;;;;;5072123;28;20008;-69
2024/03/26 11:53:46;;;;;;;;;;;;;;;;;;5074321;28;19923;-69
2024/03/26 11:56:12;;;;;;;;;;;;;;;;;;5072294;28;20281;-69
2024/03/26 11:58:37;;;;;;;;;;;;;;;;;;5072651;28;20547;-70
2024/03/26 12:01:03;;;;;;;;;;;;;;;;;;5070949;28;20268;-69
2024/03/26 12:03:28;;;;;;;;;;;;;;;;;;5072934;28;20364;-69
2024/03/26 12:05:53;;;;;;;;;;;;;;;;;;5072146;28;19909;-70
2024/03/26 12:08:18;;;;;;;;;;;;;;;;;;5071757;28;19912;-69
2024/03/26 12:10:44;;;;;;;;;;;;;;;;;;5087420;28;20368;-71
2024/03/26 12:13:09;;;;;;;;;;;;;;;;;;5092222;28;20352;-70
2024/03/26 12:15:34;;;;;;;;;;;;;;;;;;5072480;28;19912;-69
2024/03/26 12:17:59;;;;;;;;;;;;;;;;;;5072297;28;19912;-70
2024/03/26 12:20:26;;;;;;;;;;;;;;;;;;5071176;28;19920;-70
2024/03/26 12:22:52;;;;;;;;;;;;;;;;;;5071366;28;19912;-68
2024/03/26 12:25:17;;;;;;;;;;;;;;;;;;5071350;28;19962;-70
2024/03/26 12:27:42;;;;;;;;;;;;;;;;;;5071456;28;20368;-69
2024/03/26 12:30:07;;;;;;;;;;;;;;;;;;5073740;28;20424;-70
2024/03/26 12:32:32;;;;;;;;;;;;;;;;;;5071136;28;20568;-69
2024/03/26 12:34:57;;;;;;;;;;;;;;;;;;5071153;28;20268;-70
2024/03/26 12:37:22;;;;;;;;;;;;;;;;;;5080454;28;20292;-71
2024/03/26 12:39:47;;;;;;;;;;;;;;;;;;5080698;28;20334;-70
2024/03/26 12:42:13;;;;;;;;;;;;;;;;;;5075375;28;20302;-71
2024/03/26 12:44:38;;;;;;;;;;;;;;;;;;5086884;28;19912;-70
2024/03/26 12:47:03;;;;;;;;;;;;;;;;;;5091396;28;19908;-69
2024/03/26 12:49:28;;;;;;;;;;;;;;;;;;5079152;28;19916;-69
2024/03/26 12:51:53;;;;;;;;;;;;;;;;;;5071623;28;20475;-60
2024/03/26 12:54:18;;;;;;;;;;;;;;;;;;5079310;28;20277;-60
2024/03/26 12:56:43;;;;;;;;;;;;;;;;;;5091663;28;20574;-60
2024/03/26 12:59:09;;;;;;;;;;;;;;;;;;5071421;28;19916;-61
2024/03/26 13:01:34;;;;;;;;;;;;;;;;;;5075873;28;20372;-61
2024/03/26 13:03:59;;;;;;;;;;;;;;;;;;5072266;28;19958;-61
2024/03/26 13:06:24;;;;;;;;;;;;;;;;;;5076722;28;19912;-60
2024/03/26 13:08:49;;;;;;;;;;;;;;;;;;5089222;28;20412;-61
2024/03/26 13:11:14;;;;;;;;;;;;;;;;;;5078430;28;20292;-60
2024/03/26 13:13:40;;;;;;;;;;;;;;;;;;5094056;28;20292;-61
2024/03/26 13:16:05;;;;;;;;;;;;;;;;;;5083766;28;20268;-61
2024/03/26 13:18:30;;;;;;;;;;;;;;;;;;5074975;28;19913;-60
2024/03/26 13:20:55;;;;;;;;;;;;;;;;;;5074775;28;19912;-60
2024/03/26 13:23:20;;;;;;;;;;;;;;;;;;5076616;28;19923;-60
2024/03/26 13:25:46;;;;;;;;;;;;;;;;;;5075137;28;19932;-60
2024/03/26 13:28:11;;;;;;;;;;;;;;;;;;5086153;28;20277;-60
2024/03/26 13:30:36;;;;;;;;;;;;;;;;;;5095203;28;19930;-61
2024/03/26 13:33:01;;;;;;;;;;;;;;;;;;5093212;28;19909;-62
2024/03/26 13:35:26;;;;;;;;;;;;;;;;;;5095006;28;19978;-60
2024/03/26 13:37:51;;;;;;;;;;;;;;;;;;5094916;28;19918;-61
2024/03/26 13:40:16;;;;;;;;;;;;;;;;;;5104450;28;19983;-61
2024/03/26 13:42:42;;;;;;;;;;;;;;;;;;5098115;28;20352;-61
2024/03/26 13:45:07;;;;;;;;;;;;;;;;;;5115530;28;19908;-60
2024/03/26 13:47:32;;;;;;;;;;;;;;;;;;5115537;28;20348;-61
2024/03/26 13:49:57;;;;;;;;;;;;;;;;;;5115345;28;20372;-60
2024/03/26 13:52:22;;;;;;;;;;;;;;;;;;5106654;28;20276;-60
2024/03/26 13:54:47;;;;;;;;;;;;;;;;;;5094579;28;20259;-60
2024/03/26 13:57:12;;;;;;;;;;;;;;;;;;5098665;28;20572;-61
2024/03/26 13:59:38;;;;;;;;;;;;;;;;;;5114974;28;20328;-61
2024/03/26 14:02:04;;;;;;;;;;;;;;;;;;5111657;28;19947;-60
2024/03/26 14:04:29;;;;;;;;;;;;;;;;;;5105193;28;19943;-60
2024/03/26 14:06:54;;;;;;;;;;;;;;;;;;5094251;28;19912;-61
2024/03/26 14:09:19;;;;;;;;;;;;;;;;;;5094639;28;19908;-60
2024/03/26 14:11:45;;;;;;;;;;;;;;;;;;5094267;28;19908;-68
2024/03/26 14:14:10;;;;;;;;;;;;;;;;;;5100642;28;19912;-61
2024/03/26 14:16:35;;;;;;;;;;;;;;;;;;5094321;28;19915;-60
2024/03/26 14:19:00;;;;;;;;;;;;;;;;;;5110107;28;19927;-60
2024/03/26 14:21:25;;;;;;;;;;;;;;;;;;5094955;28;19920;-61
2024/03/26 14:23:50;;;;;;;;;;;;;;;;;;5093052;28;19995;-70
2024/03/26 14:26:15;;;;;;;;;;;;;;;;;;5096342;28;19908;-71
2024/03/26 14:28:40;;;;;;;;;;;;;;;;;;5093829;28;19916;-71
2024/03/26 14:31:05;;;;;;;;;;;;;;;;;;5107155;28;19927;-71
2024/03/26 14:33:31;;;;;;;;;;;;;;;;;;5100760;28;19916;-71
2024/03/26 14:35:56;;;;;;;;;;;;;;;;;;5102174;28;20360;-70
2024/03/26 14:38:21;;;;;;;;;;;;;;;;;;5094730;28;19912;-70
2024/03/26 14:40:46;;;;;;;;;;;;;;;;;;5076244;28;20007;-70
2024/03/26 14:43:11;;;;;;;;;;;;;;;;;;5084526;28;19993;-71
2024/03/26 14:45:36;;;;;;;;;;;;;;;;;;5084166;28;19970;-70
2024/03/26 14:48:02;;;;;;;;;;;;;;;;;;5073416;28;19916;-70
2024/03/26 14:50:27;;;;;;;;;;;;;;;;;;5072771;28;19919;-69
2024/03/26 14:52:52;;;;;;;;;;;;;;;;;;5085945;28;19912;-70
2024/03/26 14:55:17;;;;;;;;;;;;;;;;;;5079524;28;20039;-69
2024/03/26 14:57:42;;;;;;;;;;;;;;;;;;5072742;28;19912;-71
2024/03/26 15:00:10;;;;;;;;;;;;;;;;;;5073855;28;19924;-69
2024/03/26 15:02:36;;;;;;;;;;;;;;;;;;5072824;28;19913;-69
2024/03/26 15:05:04;;;;;;;;;;;;;;;;;;5073267;28;20007;-69
2024/03/26 15:07:29;;;;;;;;;;;;;;;;;;5074037;28;19916;-70
2024/03/26 15:09:54;;;;;;;;;;;;;;;;;;5090054;28;19965;-71
2024/03/26 15:12:20;;;;;;;;;;;;;;;;;;5091503;28;19912;-70
2024/03/26 15:14:45;;;;;;;;;;;;;;;;;;5081500;28;19922;-70
2024/03/26 15:17:10;;;;;;;;;;;;;;;;;;5081331;28;19920;-70
2024/03/26 15:19:35;;;;;;;;;;;;;;;;;;5072845;28;19916;-70
2024/03/26 15:22:00;;;;;;;;;;;;;;;;;;5075190;28;19923;-69
2024/03/26 15:24:25;;;;;;;;;;;;;;;;;;5073969;28;19925;-69
2024/03/26 15:32:17;;;;;;;;;;;;;;;;;;5074616;28;19919;-69
2024/03/26 15:34:43;;;;;;;;;;;;;;;;;;5073142;28;20003;-69
2024/03/26 15:37:08;;;;;;;;;;;;;;;;;;5087935;28;20283;-70
2024/03/26 15:39:33;;;;;;;;;;;;;;;;;;5073448;28;20003;-70
2024/03/26 15:41:58;;;;;;;;;;;;;;;;;;5083338;28;19955;-70
2024/03/26 15:44:24;;;;;;;;;;;;;;;;;;5085461;28;19912;-69
2024/03/26 15:46:49;;;;;;;;;;;;;;;;;;5077293;28;19912;-71
2024/03/26 15:49:14;;;;;;;;;;;;;;;;;;5071770;28;19913;-70
2024/03/26 15:51:39;;;;;;;;;;;;;;;;;;5072018;28;19917;-70
2024/03/26 15:54:04;;;;;;;;;;;;;;;;;;5071943;28;20050;-65
2024/03/26 15:56:29;;;;;;;;;;;;;;;;;;5078389;28;19952;-70
2024/03/26 15:58:54;;;;;;;;;;;;;;;;;;5076429;28;19912;-69
2024/03/26 16:01:19;;;;;;;;;;;;;;;;;;5075343;28;19913;-69
2024/03/26 16:03:45;;;;;;;;;;;;;;;;;;5074661;28;20377;-68
2024/03/26 16:06:10;;;;;;;;;;;;;;;;;;5081776;28;19916;-70
2024/03/26 16:08:36;;;;;;;;;;;;;;;;;;5080388;28;19980;-69
2024/03/26 16:11:01;;;;;;;;;;;;;;;;;;5081597;28;20391;-68
2024/03/26 16:13:26;;;;;;;;;;;;;;;;;;5080823;28;19909;-69
2024/03/26 16:15:52;;;;;;;;;;;;;;;;;;5080524;28;19911;-70
2024/03/26 16:18:17;;;;;;;;;;;;;;;;;;5082160;28;19912;-69
2024/03/26 16:20:42;;;;;;;;;;;;;;;;;;5080527;28;19958;-69
2024/03/26 16:23:07;;;;;;;;;;;;;;;;;;5082347;28;19961;-69
2024/03/26 16:25:32;;;;;;;;;;;;;;;;;;5081614;28;19918;-68
2024/03/26 16:27:57;;;;;;;;;;;;;;;;;;5084766;28;20349;-67
2024/03/26 16:30:23;;;;;;;;;;;;;;;;;;5088235;28;19912;-69
2024/03/26 16:32:48;;;;;;;;;;;;;;;;;;5077267;28;19994;-69
2024/03/26 16:35:13;;;;;;;;;;;;;;;;;;5083665;28;20357;-69
2024/03/26 16:37:38;;;;;;;;;;;;;;;;;;5071068;28;20254;-69